Time;durP1;ratioP1;P1;durP2;ratioP2;P2;SDS_P1;SDS_P2;PMS_P1;PMS_P2;Temp;Humidity;BMP_temperature;BMP_pressure;BME280_temperature;BME280_humidity;BME280_pressure;Samples;Min_cycle;Max_cycle;Signal;HPM_P1;HPM_P2
2023/08/29 00:02:21;;;;;;;4.30;2.00;;;;;;;14.76;100.00;97482.34;5093372;28;20219;-74
2023/08/29 00:04:47;;;;;;;1.83;1.73;;;;;;;14.78;100.00;97482.88;5093648;28;20570;-74
2023/08/29 00:07:14;;;;;;;2.33;1.90;;;;;;;14.83;100.00;97482.13;5093314;28;20570;-74
2023/08/29 00:09:40;;;;;;;3.07;1.70;;;;;;;14.90;100.00;97477.31;5093201;28;20733;-74
2023/08/29 00:12:07;;;;;;;2.20;2.00;;;;;;;14.80;100.00;97469.25;5093277;28;20282;-74
2023/08/29 00:14:34;;;;;;;3.20;2.30;;;;;;;14.79;100.00;97476.44;5093476;28;20229;-74
2023/08/29 00:17:00;;;;;;;2.17;1.90;;;;;;;14.90;100.00;97472.78;5093054;28;20208;-74
2023/08/29 00:19:26;;;;;;;3.73;2.47;;;;;;;14.86;100.00;97478.91;5093187;28;20227;-74
2023/08/29 00:21:53;;;;;;;2.53;2.20;;;;;;;14.84;100.00;97476.47;5093017;28;20721;-74
2023/08/29 00:24:19;;;;;;;2.63;2.20;;;;;;;14.81;100.00;97466.31;5095425;28;20666;-74
2023/08/29 00:26:46;;;;;;;3.80;2.10;;;;;;;14.88;100.00;97469.53;5097356;28;20230;-74
2023/08/29 00:29:12;;;;;;;2.13;2.00;;;;;;;14.80;100.00;97470.06;5097119;28;20250;-74
2023/08/29 00:31:38;;;;;;;2.30;2.10;;;;;;;14.74;100.00;97463.03;5097377;28;20618;-74
2023/08/29 00:34:05;;;;;;;2.73;2.17;;;;;;;14.77;100.00;97459.88;5097697;28;20578;-74
2023/08/29 00:36:31;;;;;;;2.40;2.20;;;;;;;14.83;100.00;97468.72;5097153;28;20214;-74
2023/08/29 00:38:57;;;;;;;3.43;2.13;;;;;;;14.82;100.00;97469.78;5097000;28;20235;-74
2023/08/29 00:41:24;;;;;;;2.47;2.30;;;;;;;14.80;100.00;97469.25;5097019;28;20218;-74
2023/08/29 00:43:50;;;;;;;2.73;2.50;;;;;;;14.78;100.00;97477.53;5096722;28;20204;-74
2023/08/29 00:46:17;;;;;;;2.50;2.30;;;;;;;14.81;100.00;97486.91;5096747;28;20685;-74
2023/08/29 00:48:43;;;;;;;3.63;2.20;;;;;;;14.83;100.00;97488.25;5096917;28;20227;-74
2023/08/29 00:51:10;;;;;;;3.80;2.30;;;;;;;14.78;100.00;97487.41;5096638;28;20674;-74
2023/08/29 00:53:37;;;;;;;5.53;2.40;;;;;;;14.78;100.00;97482.88;5096513;28;20682;-74
2023/08/29 00:56:05;;;;;;;2.90;2.20;;;;;;;14.81;100.00;97487.72;5096394;28;20539;-74
2023/08/29 00:58:32;;;;;;;4.23;2.40;;;;;;;14.70;100.00;97480.69;5096612;28;20226;-74
2023/08/29 01:00:59;;;;;;;2.20;2.10;;;;;;;14.82;100.00;97480.47;5096667;28;20204;-74
2023/08/29 01:03:25;;;;;;;2.33;2.17;;;;;;;14.73;100.00;97482.84;5096524;28;20589;-74
2023/08/29 01:05:52;;;;;;;2.43;2.23;;;;;;;14.67;100.00;97478.53;5096569;28;20204;-74
2023/08/29 01:08:18;;;;;;;2.40;2.20;;;;;;;14.71;100.00;97474.28;5096379;28;20200;-74
2023/08/29 01:11:03;;;;;;;3.00;2.70;;;;;;;14.58;100.00;97476.59;5096449;28;20204;-74
2023/08/29 01:13:49;;;;;;;2.60;2.40;;;;;;;14.69;100.00;97473.72;5096409;28;20210;-74
2023/08/29 01:16:21;;;;;;;3.50;2.47;;;;;;;14.69;100.00;97471.06;5095069;28;20275;-74
2023/08/29 01:18:48;;;;;;;2.87;2.30;;;;;;;14.70;100.00;97475.31;5095963;28;20574;-74
2023/08/29 01:21:32;;;;;;;4.10;2.40;;;;;;;14.71;100.00;97470.78;5095943;28;20208;-74
2023/08/29 01:24:36;;;;;;;3.83;2.50;;;;;;;14.75;100.00;97478.03;5096402;28;20194;-74
2023/08/29 01:27:04;;;;;;;3.17;2.43;;;;;;;14.68;100.00;97474.78;5095060;28;20198;-74
2023/08/29 01:29:32;;;;;;;3.13;2.50;;;;;;;14.78;100.00;97471.34;5095938;28;20242;-74
2023/08/29 01:32:00;;;;;;;3.13;2.33;;;;;;;14.71;100.00;97476.97;5096174;28;20206;-74
2023/08/29 01:34:27;;;;;;;2.37;2.23;;;;;;;14.68;100.00;97474.78;5096054;28;20287;-74
2023/08/29 01:36:53;;;;;;;2.67;2.30;;;;;;;14.74;100.00;97478.31;5095045;28;20212;-74
2023/08/29 01:39:20;;;;;;;3.87;2.53;;;;;;;14.74;100.00;97481.00;5095620;28;20588;-74
2023/08/29 01:41:46;;;;;;;2.57;2.33;;;;;;;14.69;100.00;97473.72;5095530;28;20685;-74
2023/08/29 01:44:12;;;;;;;4.00;2.77;;;;;;;14.77;100.00;97470.56;5095916;28;20214;-74
2023/08/29 01:46:39;;;;;;;2.87;2.57;;;;;;;14.77;100.00;97467.91;5096599;28;20199;-74
2023/08/29 01:49:06;;;;;;;3.60;2.70;;;;;;;14.81;100.00;97474.34;5095673;28;20227;-74
2023/08/29 01:51:33;;;;;;;3.93;3.00;;;;;;;14.77;100.00;97465.22;5095719;28;20214;-74
2023/08/29 01:53:59;;;;;;;3.20;2.80;;;;;;;14.85;100.00;97472.75;5095708;28;20204;-74
2023/08/29 01:56:29;;;;;;;3.70;2.43;;;;;;;14.77;100.00;97465.22;5095643;28;20210;-74
2023/08/29 01:58:57;;;;;;;2.80;2.60;;;;;;;14.78;100.00;97464.16;5096391;28;20230;-74
2023/08/29 02:01:24;;;;;;;3.97;2.80;;;;;;;14.78;100.00;97468.69;5095254;28;20208;-74
2023/08/29 02:03:51;;;;;;;2.87;2.67;;;;;;;14.77;100.00;97464.41;5095504;28;20224;-74
2023/08/29 02:06:18;;;;;;;2.60;2.40;;;;;;;14.71;100.00;97462.78;5095436;28;20200;-74
2023/08/29 02:08:44;;;;;;;3.10;2.50;;;;;;;14.75;100.00;97463.88;5095139;28;20725;-74
2023/08/29 02:11:10;;;;;;;3.00;2.80;;;;;;;14.73;100.00;97463.31;5095028;28;20246;-74
2023/08/29 02:13:37;;;;;;;2.70;2.50;;;;;;;14.80;100.00;97454.00;5095338;28;20200;-74
2023/08/29 02:16:03;;;;;;;3.37;3.03;;;;;;;14.72;100.00;97451.81;5095340;28;20208;-74
2023/08/29 02:18:30;;;;;;;3.50;2.80;;;;;;;14.80;100.00;97455.88;5095223;28;20291;-74
2023/08/29 02:20:56;;;;;;;3.53;3.10;;;;;;;14.83;100.00;97450.78;5095374;28;20206;-74
2023/08/29 02:23:23;;;;;;;3.17;2.97;;;;;;;14.74;100.00;97446.22;5095350;28;20228;-74
2023/08/29 02:26:03;;;;;;;3.07;2.77;;;;;;;14.73;100.00;97434.69;5094775;28;20570;-74
2023/08/29 02:28:35;;;;;;;4.17;3.00;;;;;;;14.76;100.00;97442.19;5094734;28;20260;-74
2023/08/29 02:31:10;;;;;;;3.77;3.47;;;;;;;14.95;100.00;97434.50;5095028;28;20192;-74
2023/08/29 02:33:38;;;;;;;3.27;2.80;;;;;;;14.87;100.00;97441.19;5094898;28;20252;-74
2023/08/29 02:36:05;;;;;;;3.13;2.83;;;;;;;14.85;100.00;97435.28;5094492;28;20560;-74
2023/08/29 02:38:33;;;;;;;2.97;2.77;;;;;;;14.97;100.00;97435.88;5094705;28;20570;-74
2023/08/29 02:40:59;;;;;;;2.93;2.60;;;;;;;14.88;100.00;97437.44;5094902;28;20210;-74
2023/08/29 02:43:26;;;;;;;3.00;2.70;;;;;;;14.77;100.00;97443.81;5094440;28;20227;-74
2023/08/29 02:45:53;;;;;;;3.13;2.80;;;;;;;14.75;100.00;97437.09;5094545;28;20287;-74
2023/08/29 02:48:19;;;;;;;3.27;2.97;;;;;;;14.73;100.00;97432.00;5093445;28;20214;-74
2023/08/29 02:50:48;;;;;;;3.10;2.80;;;;;;;14.71;100.00;97428.81;5094804;28;20207;-74
2023/08/29 02:53:18;;;;;;;3.63;3.30;;;;;;;14.78;100.00;97426.69;5095321;28;20538;-74
2023/08/29 02:55:44;;;;;;;4.03;3.00;;;;;;;14.81;100.00;97422.69;5094191;28;20577;-74
2023/08/29 02:58:10;;;;;;;3.67;3.33;;;;;;;14.64;100.00;97428.22;5094083;28;20208;-74
2023/08/29 03:00:37;;;;;;;4.17;3.20;;;;;;;14.70;100.00;97427.16;5094508;28;20223;-74
2023/08/29 03:03:04;;;;;;;3.97;3.37;;;;;;;14.68;100.00;97423.97;5093885;28;20230;-74
2023/08/29 03:05:31;;;;;;;5.13;3.47;;;;;;;14.67;100.00;97427.72;5094310;28;20204;-74
2023/08/29 03:07:57;;;;;;;4.70;2.87;;;;;;;14.82;100.00;97426.97;5094273;28;20214;-74
2023/08/29 03:10:24;;;;;;;4.53;3.60;;;;;;;14.76;100.00;97439.53;5094045;28;20224;-74
2023/08/29 03:12:53;;;;;;;4.23;3.70;;;;;;;14.82;100.00;97426.97;5093884;28;20564;-74
2023/08/29 03:15:20;;;;;;;3.93;3.63;;;;;;;14.86;100.00;97433.41;5095118;28;20210;-74
2023/08/29 03:17:47;;;;;;;3.57;3.37;;;;;;;14.85;100.00;97429.13;5093817;28;20217;-74
2023/08/29 03:20:14;;;;;;;6.13;3.67;;;;;;;14.84;100.00;97420.28;5093927;28;20227;-74
2023/08/29 03:22:41;;;;;;;5.87;3.97;;;;;;;15.02;100.00;97417.13;5093968;28;20286;-74
2023/08/29 03:25:08;;;;;;;3.40;3.10;;;;;;;14.93;100.00;97415.25;5094053;28;20575;-74
2023/08/29 03:27:34;;;;;;;4.43;3.40;;;;;;;14.88;100.00;97418.69;5093982;28;20206;-74
2023/08/29 03:30:01;;;;;;;5.00;3.80;;;;;;;14.85;100.00;97415.75;5093732;28;20242;-74
2023/08/29 03:32:27;;;;;;;5.23;3.77;;;;;;;14.89;100.00;97414.97;5093762;28;20200;-74
2023/08/29 03:34:55;;;;;;;4.13;3.17;;;;;;;14.84;100.00;97412.25;5093762;28;20204;-74
2023/08/29 03:37:21;;;;;;;3.87;3.57;;;;;;;14.92;100.00;97414.44;5093561;28;20208;-74
2023/08/29 03:39:48;;;;;;;3.90;3.47;;;;;;;14.93;100.00;97412.56;5093481;28;20663;-74
2023/08/29 03:42:14;;;;;;;4.03;3.67;;;;;;;14.95;100.00;97419.28;5093205;28;20204;-74
2023/08/29 03:44:40;;;;;;;4.47;3.97;;;;;;;14.93;100.00;97410.69;5093534;28;20208;-74
2023/08/29 03:47:07;;;;;;;5.23;3.57;;;;;;;14.93;100.00;97410.69;5093805;28;20207;-74
2023/08/29 03:49:33;;;;;;;3.97;3.63;;;;;;;14.87;100.00;97406.38;5093540;28;20230;-74
2023/08/29 03:51:59;;;;;;;4.30;3.90;;;;;;;14.82;100.00;97401.00;5093620;28;20223;-74
2023/08/29 03:54:26;;;;;;;6.57;3.50;;;;;;;14.91;100.00;97396.78;5093467;28;20200;-74
2023/08/29 03:56:52;;;;;;;4.70;4.30;;;;;;;14.79;100.00;97398.84;5093390;28;20210;-74
2023/08/29 03:59:18;;;;;;;4.07;3.77;;;;;;;14.84;100.00;97400.75;5095509;28;20230;-74
2023/08/29 04:01:45;;;;;;;4.70;4.30;;;;;;;14.83;100.00;97394.59;5097748;28;20204;-74
2023/08/29 04:04:11;;;;;;;4.57;4.17;;;;;;;14.94;100.00;97396.25;5093075;28;20218;-77
2023/08/29 04:06:37;;;;;;;4.50;4.10;;;;;;;14.91;100.00;97399.44;5076912;28;20689;-77
2023/08/29 04:09:07;;;;;;;5.23;4.73;;;;;;;14.91;100.00;97396.78;5076773;28;20232;-77
2023/08/29 04:11:33;;;;;;;6.20;4.57;;;;;;;14.85;100.00;97394.34;5077086;28;20208;-77
2023/08/29 04:14:00;;;;;;;5.63;4.27;;;;;;;14.87;100.00;97400.22;5077240;28;20200;-77
2023/08/29 04:16:26;;;;;;;7.20;5.50;;;;;;;15.04;100.00;97401.63;5096007;28;20658;-77
2023/08/29 04:18:52;;;;;;;6.60;6.00;;;;;;;14.88;100.00;97399.97;5097708;28;20234;-77
2023/08/29 04:21:19;;;;;;;7.03;5.93;;;;;;;14.88;100.00;97397.28;5097074;28;20287;-77
2023/08/29 04:23:45;;;;;;;6.40;5.83;;;;;;;14.91;100.00;97406.66;5095080;28;20223;-77
2023/08/29 04:26:11;;;;;;;6.70;5.93;;;;;;;14.84;100.00;97398.88;5083184;28;20196;-77
2023/08/29 04:28:38;;;;;;;7.67;6.80;;;;;;;14.82;100.00;97402.88;5112145;28;20241;-77
2023/08/29 04:31:08;;;;;;;7.30;6.60;;;;;;;14.97;100.00;97398.38;5102677;28;20577;-77
2023/08/29 04:33:34;;;;;;;7.27;6.60;;;;;;;14.80;100.00;97394.31;5084632;28;20215;-77
2023/08/29 04:36:01;;;;;;;7.33;6.63;;;;;;;14.88;100.00;97404.53;5085015;28;20203;-77
2023/08/29 04:38:28;;;;;;;7.00;6.40;;;;;;;14.80;100.00;97395.13;5084984;28;20204;-77
2023/08/29 04:40:55;;;;;;;8.50;6.47;;;;;;;14.88;100.00;97408.00;5082993;28;20215;-77
2023/08/29 04:43:21;;;;;;;7.37;6.67;;;;;;;14.83;100.00;97404.50;5084951;28;20294;-77
2023/08/29 04:45:50;;;;;;;7.17;6.50;;;;;;;14.78;100.00;97407.94;5076307;28;20614;-77
2023/08/29 04:48:17;;;;;;;7.70;7.10;;;;;;;14.87;100.00;97408.25;5076846;28;20204;-77
2023/08/29 04:50:45;;;;;;;8.30;6.60;;;;;;;14.91;100.00;97401.31;5080687;28;20208;-76
2023/08/29 04:53:11;;;;;;;8.93;8.00;;;;;;;14.76;100.00;97404.75;5076724;28;20250;-76
2023/08/29 04:55:38;;;;;;;7.63;6.83;;;;;;;14.83;100.00;97399.94;5073928;28;20215;-77
2023/08/29 04:58:05;;;;;;;8.07;7.47;;;;;;;14.81;100.00;97402.09;5074122;28;20205;-77
2023/08/29 05:00:31;;;;;;;8.80;7.93;;;;;;;14.77;100.00;97400.19;5074555;28;20225;-77
2023/08/29 05:02:58;;;;;;;7.93;7.30;;;;;;;14.99;100.00;97406.16;5074515;28;20224;-76
2023/08/29 05:05:24;;;;;;;8.80;8.10;;;;;;;14.87;100.00;97400.22;5073887;28;20672;-77
2023/08/29 05:07:50;;;;;;;7.83;7.10;;;;;;;14.79;100.00;97398.84;5074628;28;20209;-77
2023/08/29 05:10:17;;;;;;;8.30;6.73;;;;;;;14.90;100.00;97395.16;5074460;28;20231;-77
2023/08/29 05:12:43;;;;;;;8.60;7.80;;;;;;;14.83;100.00;97399.94;5075940;28;20288;-77
2023/08/29 05:15:10;;;;;;;9.03;8.33;;;;;;;14.70;100.00;97394.28;5076077;28;20205;-77
2023/08/29 05:17:36;;;;;;;8.43;7.63;;;;;;;14.83;100.00;97402.63;5076112;28;20571;-77
2023/08/29 05:20:03;;;;;;;10.47;8.43;;;;;;;14.84;100.00;97401.53;5076266;28;20224;-74
2023/08/29 05:22:29;;;;;;;9.30;8.40;;;;;;;14.91;100.00;97398.63;5075629;28;20204;-74
2023/08/29 05:24:56;;;;;;;9.33;7.80;;;;;;;15.03;100.00;97399.22;5075965;28;20215;-74
2023/08/29 05:27:22;;;;;;;9.63;8.83;;;;;;;14.86;100.00;97407.47;5075942;28;20200;-74
2023/08/29 05:29:48;;;;;;;9.43;8.70;;;;;;;14.88;100.00;97402.63;5075331;28;20723;-74
2023/08/29 05:32:15;;;;;;;10.57;9.53;;;;;;;14.87;100.00;97400.22;5075956;28;20204;-74
2023/08/29 05:34:41;;;;;;;9.17;8.37;;;;;;;14.81;100.00;97403.94;5075682;28;20211;-74
2023/08/29 05:37:07;;;;;;;10.53;9.40;;;;;;;14.86;100.00;97409.31;5075166;28;20204;-74
2023/08/29 05:39:34;;;;;;;9.57;8.73;;;;;;;14.91;100.00;97407.47;5075465;28;20319;-74
2023/08/29 05:42:00;;;;;;;10.63;9.70;;;;;;;14.85;100.00;97408.53;5075523;28;20236;-74
2023/08/29 05:44:27;;;;;;;11.60;10.13;;;;;;;14.80;100.00;97405.84;5075198;28;20226;-74
2023/08/29 05:46:53;;;;;;;10.53;9.63;;;;;;;14.82;100.00;97410.91;5075006;28;20204;-74
2023/08/29 05:49:19;;;;;;;11.80;10.60;;;;;;;14.78;100.00;97413.31;5075526;28;20227;-74
2023/08/29 05:51:46;;;;;;;12.17;11.17;;;;;;;14.78;100.00;97407.94;5075156;28;20211;-74
2023/08/29 05:54:12;;;;;;;11.90;10.73;;;;;;;14.90;100.00;97405.88;5074857;28;20600;-74
2023/08/29 05:56:38;;;;;;;12.23;10.90;;;;;;;14.76;100.00;97403.94;5075373;28;20208;-74
2023/08/29 05:59:05;;;;;;;14.47;11.20;;;;;;;14.72;100.00;97406.31;5074469;28;20570;-74
2023/08/29 06:01:32;;;;;;;14.67;12.20;;;;;;;14.69;100.00;97409.50;5075422;28;20580;-74
2023/08/29 06:03:58;;;;;;;13.10;10.57;;;;;;;14.61;100.00;97412.69;5074699;28;20770;-74
2023/08/29 06:06:24;;;;;;;12.10;10.87;;;;;;;14.64;100.00;97406.00;5074660;28;20209;-74
2023/08/29 06:08:51;;;;;;;12.80;10.27;;;;;;;14.78;100.00;97413.31;5075057;28;20225;-74
2023/08/29 06:11:17;;;;;;;11.87;10.67;;;;;;;14.63;100.00;97426.63;5074851;28;20200;-74
2023/08/29 06:13:43;;;;;;;11.20;10.20;;;;;;;14.55;100.00;97427.09;5074385;28;20197;-74
2023/08/29 06:16:10;;;;;;;11.50;10.40;;;;;;;14.68;100.00;97428.50;5074649;28;20209;-74
2023/08/29 06:18:36;;;;;;;10.57;9.57;;;;;;;14.65;100.00;97424.47;5074301;28;20664;-74
2023/08/29 06:21:04;;;;;;;11.83;10.47;;;;;;;14.78;100.00;97429.34;5074058;28;20690;-74
2023/08/29 06:23:31;;;;;;;11.53;9.70;;;;;;;14.65;100.00;97431.72;5074587;28;20220;-74
2023/08/29 06:25:57;;;;;;;10.63;9.73;;;;;;;14.92;100.00;97427.81;5074227;28;20213;-74
2023/08/29 06:28:23;;;;;;;11.03;10.00;;;;;;;14.77;100.00;97440.31;5073836;28;20205;-74
2023/08/29 06:30:50;;;;;;;10.20;9.30;;;;;;;14.75;100.00;97440.56;5074238;28;20555;-74
2023/08/29 06:33:16;;;;;;;10.00;9.20;;;;;;;14.63;100.00;97441.84;5087821;28;20200;-74
2023/08/29 06:35:43;;;;;;;10.03;9.23;;;;;;;14.58;100.00;97439.97;5094033;28;20198;-74
2023/08/29 06:38:09;;;;;;;9.40;8.70;;;;;;;14.70;100.00;97445.91;5094691;28;20208;-74
2023/08/29 06:40:36;;;;;;;9.37;8.40;;;;;;;14.73;100.00;97450.75;5094619;28;20231;-74
2023/08/29 06:43:02;;;;;;;9.10;8.33;;;;;;;14.68;100.00;97449.91;5093971;28;20208;-74
2023/08/29 06:45:28;;;;;;;10.93;9.47;;;;;;;14.63;100.00;97457.91;5094801;28;20204;-74
2023/08/29 06:47:55;;;;;;;9.67;8.83;;;;;;;14.58;100.00;97464.03;5094297;28;20208;-74
2023/08/29 06:50:21;;;;;;;10.03;9.03;;;;;;;14.70;100.00;97463.84;5093867;28;20228;-74
2023/08/29 06:52:47;;;;;;;10.03;9.10;;;;;;;14.69;100.00;97463.03;5094241;28;20670;-74
2023/08/29 06:55:14;;;;;;;10.37;8.63;;;;;;;14.60;100.00;97463.78;5093884;28;20208;-74
2023/08/29 06:57:40;;;;;;;13.30;9.27;;;;;;;14.69;100.00;97463.03;5094032;28;20207;-74
2023/08/29 07:00:10;;;;;;;9.43;8.53;;;;;;;14.71;100.00;97470.78;5094165;28;20231;-74
2023/08/29 07:02:36;;;;;;;9.87;8.87;;;;;;;14.65;100.00;97466.50;5094050;28;20295;-74
2023/08/29 07:05:03;;;;;;;9.10;8.23;;;;;;;14.65;100.00;97471.84;5093924;28;20223;-74
2023/08/29 07:07:29;;;;;;;10.97;8.77;;;;;;;14.66;100.00;97476.91;5094197;28;20208;-74
2023/08/29 07:09:55;;;;;;;9.97;9.03;;;;;;;14.60;100.00;97469.94;5094719;28;20228;-74
2023/08/29 07:12:22;;;;;;;11.90;9.10;;;;;;;14.76;100.00;97477.00;5094215;28;20568;-74
2023/08/29 07:14:48;;;;;;;10.30;9.30;;;;;;;14.75;100.00;97467.31;5093777;28;20226;-74
2023/08/29 07:17:14;;;;;;;10.03;9.13;;;;;;;14.92;100.00;97473.31;5094021;28;20199;-74
2023/08/29 07:19:41;;;;;;;8.93;8.10;;;;;;;14.85;100.00;97478.13;5094104;28;20220;-74
2023/08/29 07:22:07;;;;;;;9.60;8.60;;;;;;;15.01;100.00;97471.75;5094036;28;20200;-74
2023/08/29 07:24:34;;;;;;;9.10;8.17;;;;;;;15.06;100.00;97473.66;5093558;28;20238;-74
2023/08/29 07:27:01;;;;;;;8.93;8.03;;;;;;;14.98;100.00;97476.84;5093700;28;20204;-74
2023/08/29 07:29:27;;;;;;;9.60;8.20;;;;;;;14.94;100.00;97489.13;5093503;28;20259;-74
2023/08/29 07:31:53;;;;;;;8.70;7.80;;;;;;;15.12;100.00;97488.66;5093983;28;20208;-75
2023/08/29 07:34:20;;;;;;;10.77;8.17;;;;;;;15.05;100.00;97493.44;5093105;28;20199;-74
2023/08/29 07:36:46;;;;;;;7.97;7.20;;;;;;;15.10;100.00;97494.28;5093706;28;20207;-75
2023/08/29 07:39:14;;;;;;;7.83;7.13;;;;;;;15.17;100.00;97492.19;5093735;28;20699;-74
2023/08/29 07:41:41;;;;;;;7.60;6.90;;;;;;;14.93;100.00;97499.00;5093625;28;20689;-74
2023/08/29 07:44:07;;;;;;;8.00;7.07;;;;;;;14.98;100.00;97500.91;5093757;28;20590;-74
2023/08/29 07:46:34;;;;;;;6.53;6.03;;;;;;;15.10;100.00;97502.31;5093430;28;20562;-74
2023/08/29 07:49:00;;;;;;;7.40;6.73;;;;;;;15.01;100.00;97503.88;5093025;28;20227;-74
2023/08/29 07:51:27;;;;;;;7.60;6.93;;;;;;;15.00;100.00;97512.16;5093802;28;20203;-74
2023/08/29 07:53:53;;;;;;;8.40;6.87;;;;;;;15.08;100.00;97503.63;5093912;28;20204;-74
2023/08/29 07:56:20;;;;;;;11.13;7.20;;;;;;;15.04;100.00;97508.72;5093766;28;20203;-74
2023/08/29 07:58:46;;;;;;;8.37;7.60;;;;;;;14.99;100.00;97514.06;5093626;28;20297;-74
2023/08/29 08:01:12;;;;;;;8.63;7.73;;;;;;;15.28;100.00;97517.94;5093341;28;20204;-74
2023/08/29 08:03:39;;;;;;;8.77;7.97;;;;;;;15.20;100.00;97520.31;5093833;28;20223;-75
2023/08/29 08:06:06;;;;;;;8.03;7.37;;;;;;;15.08;100.00;97523.19;5093772;28;20200;-74
2023/08/29 08:08:32;;;;;;;9.00;8.20;;;;;;;14.74;100.00;97508.53;5093391;28;20294;-74
2023/08/29 08:10:58;;;;;;;10.20;9.30;;;;;;;14.87;100.00;97505.41;5093710;28;20208;-74
2023/08/29 08:13:25;;;;;;;9.73;8.77;;;;;;;14.99;100.00;97506.03;5093780;28;20309;-74
2023/08/29 08:15:51;;;;;;;9.73;8.90;;;;;;;14.80;100.00;97510.19;5093902;28;20210;-74
2023/08/29 08:18:18;;;;;;;9.67;8.60;;;;;;;14.91;100.00;97511.84;5093763;28;20211;-74
2023/08/29 08:20:44;;;;;;;9.53;8.80;;;;;;;14.85;100.00;97504.06;5093723;28;20203;-75
2023/08/29 08:23:10;;;;;;;10.10;9.30;;;;;;;14.90;100.00;97506.75;5093559;28;20211;-74
2023/08/29 08:25:37;;;;;;;10.27;9.37;;;;;;;14.90;100.00;97510.25;5093777;28;20223;-74
2023/08/29 08:28:05;;;;;;;11.50;10.60;;;;;;;14.96;100.00;97516.41;5093735;28;20208;-75
2023/08/29 08:30:32;;;;;;;10.43;9.47;;;;;;;15.02;100.00;97510.03;5093373;28;20238;-75
2023/08/29 08:32:58;;;;;;;11.27;10.27;;;;;;;15.10;100.00;97517.59;5093381;28;20211;-75
2023/08/29 08:35:25;;;;;;;11.23;10.17;;;;;;;15.06;100.00;97514.59;5093477;28;20200;-75
2023/08/29 08:37:52;;;;;;;10.27;9.27;;;;;;;14.92;100.00;97526.06;5093627;28;20281;-74
2023/08/29 08:40:18;;;;;;;10.47;9.63;;;;;;;14.87;100.00;97529.50;5092987;28;20787;-75
2023/08/29 08:42:45;;;;;;;10.53;9.50;;;;;;;14.91;100.00;97527.91;5092498;28;20208;-75
2023/08/29 08:45:12;;;;;;;11.77;10.70;;;;;;;14.82;100.00;97534.81;5094706;28;20224;-74
2023/08/29 08:47:39;;;;;;;13.57;12.40;;;;;;;14.85;100.00;97518.25;5097131;28;20690;-74
2023/08/29 08:50:08;;;;;;;12.27;11.07;;;;;;;14.88;100.00;97525.75;5096628;28;20235;-74
2023/08/29 08:52:34;;;;;;;11.23;10.33;;;;;;;15.01;100.00;97530.66;5096924;28;20208;-74
2023/08/29 08:55:01;;;;;;;12.97;10.17;;;;;;;15.07;100.00;97528.81;5096615;28;20215;-74
2023/08/29 08:57:28;;;;;;;13.70;12.53;;;;;;;15.15;100.00;97520.28;5096410;28;20669;-74
2023/08/29 08:59:55;;;;;;;13.20;12.07;;;;;;;15.35;100.00;97525.75;5096387;28;20298;-74
2023/08/29 09:02:21;;;;;;;12.80;11.70;;;;;;;15.43;100.00;97522.59;5096694;28;20203;-74
2023/08/29 09:04:48;;;;;;;12.00;10.90;;;;;;;15.59;100.00;97532.28;5096233;28;20694;-74
2023/08/29 09:07:14;;;;;;;12.47;11.17;;;;;;;15.57;100.00;97526.38;5096238;28;20578;-74
2023/08/29 09:09:40;;;;;;;11.80;10.80;;;;;;;15.45;100.00;97526.59;5096064;28;20703;-74
2023/08/29 09:12:07;;;;;;;11.43;10.53;;;;;;;15.54;100.00;97527.72;5096410;28;20219;-74
2023/08/29 09:14:33;;;;;;;9.67;8.87;;;;;;;15.49;100.00;97526.88;5096095;28;20199;-74
2023/08/29 09:17:02;;;;;;;10.47;9.60;;;;;;;15.43;100.00;97535.97;5096161;28;20574;-74
2023/08/29 09:19:30;;;;;;;12.90;11.90;;;;;;;15.29;100.00;97522.22;5096174;28;20231;-74
2023/08/29 09:21:58;;;;;;;10.63;9.57;;;;;;;15.14;100.00;97526.69;5096100;28;20212;-74
2023/08/29 09:24:35;;;;;;;12.30;11.23;;;;;;;15.06;100.00;97522.63;5095928;28;20726;-74
2023/08/29 09:27:08;;;;;;;12.67;11.57;;;;;;;15.14;100.00;97522.16;5095574;28;20667;-74
2023/08/29 09:29:35;;;;;;;11.87;10.97;;;;;;;15.12;100.00;97528.84;5095624;28;20236;-74
2023/08/29 09:32:11;;;;;;;13.97;12.87;;;;;;;15.31;100.00;97528.13;5096367;28;20212;-74
2023/08/29 09:34:38;;;;;;;14.83;13.63;;;;;;;15.22;100.00;97531.56;5097174;28;20199;-74
2023/08/29 09:37:05;;;;;;;12.23;11.33;;;;;;;15.13;100.00;97539.28;5095956;28;20203;-74
2023/08/29 09:39:31;;;;;;;14.67;13.27;;;;;;;15.11;100.00;97544.06;5089799;28;20244;-74
2023/08/29 09:42:00;;;;;;;16.23;14.93;;;;;;;15.20;100.00;97537.16;5083045;28;20679;-74
2023/08/29 09:44:27;;;;;;;15.80;14.37;;;;;;;15.10;100.00;97537.13;5083456;28;20400;-74
2023/08/29 09:46:55;;;;;;;14.63;13.27;;;;;;;15.10;100.00;97536.34;5089405;28;20192;-74
2023/08/29 09:49:21;;;;;;;16.73;15.43;;;;;;;15.21;100.00;97538.81;5084788;28;20239;-73
2023/08/29 09:51:49;;;;;;;14.70;13.50;;;;;;;15.18;100.00;97538.50;5085122;28;20196;-73
2023/08/29 09:54:20;;;;;;;15.17;13.97;;;;;;;15.15;100.00;97531.78;5083287;28;20188;-73
2023/08/29 09:56:46;;;;;;;16.30;15.00;;;;;;;15.26;100.00;97541.50;5083709;28;20192;-73
2023/08/29 09:59:17;;;;;;;16.13;14.73;;;;;;;15.47;100.00;97539.75;5087627;28;20732;-73
2023/08/29 10:01:45;;;;;;;15.60;14.40;;;;;;;15.25;100.00;97541.75;5093586;28;20192;-73
2023/08/29 10:04:20;;;;;;;14.67;13.30;;;;;;;15.23;100.00;97531.28;5093594;28;20228;-73
2023/08/29 10:06:49;;;;;;;15.33;14.03;;;;;;;15.30;100.00;97534.56;5095311;28;20588;-73
2023/08/29 10:09:16;;;;;;;14.27;12.97;;;;;;;15.30;100.00;97533.75;5093866;28;20710;-72
2023/08/29 10:11:44;;;;;;;14.03;12.73;;;;;;;15.41;100.00;97535.41;5074672;28;20205;-73
2023/08/29 10:14:12;;;;;;;13.77;12.67;;;;;;;15.44;100.00;97530.38;5074352;28;20685;-73
2023/08/29 10:16:39;;;;;;;15.33;14.03;;;;;;;15.42;100.00;97531.69;5074810;28;20687;-73
2023/08/29 10:19:06;;;;;;;15.57;14.37;;;;;;;15.53;100.00;97538.69;5075601;28;20711;-73
2023/08/29 10:21:32;;;;;;;15.00;13.70;;;;;;;15.76;100.00;97543.59;5076101;28;20549;-73
2023/08/29 10:24:00;;;;;;;14.50;13.30;;;;;;;15.95;100.00;97542.84;5075375;28;20208;-73
2023/08/29 10:26:27;;;;;;;12.20;11.20;;;;;;;16.17;100.00;97546.09;5075800;28;20204;-74
2023/08/29 10:28:55;;;;;;;13.70;12.60;;;;;;;16.10;100.00;97537.50;5075586;28;20608;-74
2023/08/29 10:31:22;;;;;;;10.83;9.77;;;;;;;15.85;100.00;97536.63;5074286;28;20568;-74
2023/08/29 10:33:48;;;;;;;10.20;9.40;;;;;;;15.86;100.00;97539.06;5075350;28;20668;-73
2023/08/29 10:36:15;;;;;;;11.30;10.37;;;;;;;15.86;100.00;97532.88;5074962;28;20207;-73
2023/08/29 10:38:48;;;;;;;11.03;10.03;;;;;;;15.98;100.00;97541.50;5075135;28;20224;-74
2023/08/29 10:41:14;;;;;;;11.53;10.53;;;;;;;15.79;100.00;97535.81;5075028;28;20193;-74
2023/08/29 10:43:41;;;;;;;11.37;10.30;;;;;;;15.67;100.00;97529.91;5074873;28;20210;-74
2023/08/29 10:46:11;;;;;;;10.50;9.70;;;;;;;15.64;100.00;97530.41;5075032;28;20235;-74
2023/08/29 10:48:41;;;;;;;10.60;9.70;;;;;;;15.75;100.00;97526.69;5074749;28;20232;-74
2023/08/29 10:51:12;;;;;;;9.47;8.43;;;;;;;15.73;100.00;97526.16;5074987;28;20208;-74
2023/08/29 10:53:47;;;;;;;9.87;9.00;;;;;;;15.65;100.00;97528.56;5075105;28;20219;-74
2023/08/29 10:56:15;;;;;;;9.57;8.87;;;;;;;15.49;100.00;97522.34;5074470;28;20180;-74
2023/08/29 10:58:43;;;;;;;12.43;11.30;;;;;;;15.47;100.00;97529.03;5074644;28;20229;-74
2023/08/29 11:01:26;;;;;;;11.83;10.73;;;;;;;15.51;100.00;97525.53;5074110;28;20619;-74
2023/08/29 11:03:53;;;;;;;12.23;11.13;;;;;;;15.46;100.00;97522.03;5074364;28;20212;-74
2023/08/29 11:06:25;;;;;;;12.50;11.40;;;;;;;15.48;100.00;97533.31;5073932;28;20227;-73
2023/08/29 11:09:11;;;;;;;11.53;10.73;;;;;;;15.68;100.00;97530.69;5073316;28;20307;-73
2023/08/29 11:11:38;;;;;;;14.73;13.63;;;;;;;15.71;100.00;97525.63;5074523;28;20205;-73
2023/08/29 11:14:06;;;;;;;16.07;14.50;;;;;;;15.89;100.00;97522.47;5073181;28;20212;-73
2023/08/29 11:16:37;;;;;;;14.60;13.50;;;;;;;16.03;100.00;97520.06;5074142;28;20200;-74
2023/08/29 11:19:16;;;;;;;14.70;13.40;;;;;;;16.25;100.00;97516.06;5074094;28;20331;-74
2023/08/29 11:21:45;;;;;;;15.83;14.43;;;;;;;16.41;100.00;97515.00;5074230;28;20250;-74